Aviation Digital Data Service (ADDS)

Output produced by METARs form (2023 UTC 18 July 2018)
found at http://www.aviationweather.gov/adds/metars/
 
METAR text: KLVK 181953Z 29007KT 10SM CLR 32/14 A2994 RMK AO2 SLP133 T03220144
Conditions at: KLVK (LIVERMORE , CA, US) observed 1953 UTC 18 July 2018
Temperature: 32.2°C (90°F)
Dewpoint: 14.4°C (58°F) [RH = 34%]
Pressure (altimeter): 29.94 inches Hg (1014.0 mb)
[Sea-level pressure: 1013.3 mb]
Winds: from the WNW (290 degrees) at 8 MPH (7 knots; 3.6 m/s)
Visibility: 10 or more miles (16+ km)
Ceiling: at least 12,000 feet AGL
Clouds: sky clear below 12,000 feet AGL
Weather: no significant weather observed at this time

METAR text: KLVK 181853Z 00000KT 10SM CLR 29/14 A2996 RMK AO2 SLP139 T02940139
Conditions at: KLVK (LIVERMORE , CA, US) observed 1853 UTC 18 July 2018
Temperature: 29.4°C (85°F)
Dewpoint: 13.9°C (57°F) [RH = 39%]
Pressure (altimeter): 29.96 inches Hg (1014.6 mb)
[Sea-level pressure: 1013.9 mb]
Winds: calm
Visibility: 10 or more miles (16+ km)
Ceiling: at least 12,000 feet AGL
Clouds: sky clear below 12,000 feet AGL
Weather: no significant weather observed at this time

METAR text: KLVK 181753Z VRB03KT 10SM CLR 26/13 A2997 RMK AO2 SLP145 T02610133 10261 20144 58001
Conditions at: KLVK (LIVERMORE , CA, US) observed 1753 UTC 18 July 2018
Temperature: 26.1°C (79°F)
Dewpoint: 13.3°C (56°F) [RH = 45%]
Pressure (altimeter): 29.97 inches Hg (1015.0 mb)
[Sea-level pressure: 1014.5 mb]
Winds: variable direction winds at 3 MPH (3 knots; 1.6 m/s)
Visibility: 10 or more miles (16+ km)
Ceiling: at least 12,000 feet AGL
Clouds: sky clear below 12,000 feet AGL
Weather: no significant weather observed at this time

METAR text: KLVK 181653Z 25005KT 10SM CLR 22/13 A2997 RMK AO2 SLP147 T02170133
Conditions at: KLVK (LIVERMORE , CA, US) observed 1653 UTC 18 July 2018
Temperature: 21.7°C (71°F)
Dewpoint: 13.3°C (56°F) [RH = 59%]
Pressure (altimeter): 29.97 inches Hg (1015.0 mb)
[Sea-level pressure: 1014.7 mb]
Winds: from the WSW (250 degrees) at 6 MPH (5 knots; 2.6 m/s)
Visibility: 10 or more miles (16+ km)
Ceiling: at least 12,000 feet AGL
Clouds: sky clear below 12,000 feet AGL
Weather: no significant weather observed at this time

METAR text: KLVK 181553Z 25005KT 8SM CLR 19/13 A2998 RMK AO2 SLP148 T01890133
Conditions at: KLVK (LIVERMORE , CA, US) observed 1553 UTC 18 July 2018
Temperature: 18.9°C (66°F)
Dewpoint: 13.3°C (56°F) [RH = 70%]
Pressure (altimeter): 29.98 inches Hg (1015.3 mb)
[Sea-level pressure: 1014.8 mb]
Winds: from the WSW (250 degrees) at 6 MPH (5 knots; 2.6 m/s)
Visibility: 8 miles (13 km)
Ceiling: at least 12,000 feet AGL
Clouds: sky clear below 12,000 feet AGL
Weather: no significant weather observed at this time

METAR text: KLVK 181453Z VRB04KT 8SM CLR 17/13 A2997 RMK AO2 SLP145 T01670128 53006
Conditions at: KLVK (LIVERMORE , CA, US) observed 1453 UTC 18 July 2018
Temperature: 16.7°C (62°F)
Dewpoint: 12.8°C (55°F) [RH = 78%]
Pressure (altimeter): 29.97 inches Hg (1015.0 mb)
[Sea-level pressure: 1014.5 mb]
Winds: variable direction winds at 5 MPH (4 knots; 2.1 m/s)
Visibility: 8 miles (13 km)
Ceiling: at least 12,000 feet AGL
Clouds: sky clear below 12,000 feet AGL
Weather: no significant weather observed at this time

METAR text: KLVK 181353Z 26005KT 7SM CLR 16/13 A2996 RMK AO2 SLP142 T01560128
Conditions at: KLVK (LIVERMORE , CA, US) observed 1353 UTC 18 July 2018
Temperature: 15.6°C (60°F)
Dewpoint: 12.8°C (55°F) [RH = 83%]
Pressure (altimeter): 29.96 inches Hg (1014.6 mb)
[Sea-level pressure: 1014.2 mb]
Winds: from the W (260 degrees) at 6 MPH (5 knots; 2.6 m/s)
Visibility: 7 miles (11 km)
Ceiling: at least 12,000 feet AGL
Clouds: sky clear below 12,000 feet AGL
Weather: no significant weather observed at this time

METAR text: KLVK 181253Z AUTO 31004KT 9SM CLR 15/12 A2995 RMK AO2 SLP138 T01500122
Conditions at: KLVK (LIVERMORE , CA, US) observed 1253 UTC 18 July 2018
Temperature: 15.0°C (59°F)
Dewpoint: 12.2°C (54°F) [RH = 83%]
Pressure (altimeter): 29.95 inches Hg (1014.3 mb)
[Sea-level pressure: 1013.8 mb]
Winds: from the NW (310 degrees) at 5 MPH (4 knots; 2.1 m/s)
Visibility: 9 miles (14 km)
Ceiling: at least 12,000 feet AGL
Clouds: sky clear below 12,000 feet AGL
Weather: automated observation with no human augmentation;
there may or may not be significant weather present at this time